sensor_id;sensor_type;location;lat;lon;timestamp;pressure;altitude;pressure_sealevel;temperature;humidity
56420;BME280;42323;52.170;7.538;2023-03-03T00:00:04;102040.44;;;1.39;86.07
56420;BME280;42323;52.170;7.538;2023-03-03T00:02:30;102029.75;;;1.29;86.25
56420;BME280;42323;52.170;7.538;2023-03-03T00:04:57;102051.94;;;1.49;86.27
56420;BME280;42323;52.170;7.538;2023-03-03T00:07:24;102037.44;;;1.46;85.79
56420;BME280;42323;52.170;7.538;2023-03-03T00:09:50;101913.38;;;0.69;86.17
56420;BME280;42323;52.170;7.538;2023-03-03T00:12:28;102020.63;;;1.39;85.96
56420;BME280;42323;52.170;7.538;2023-03-03T00:14:56;102011.22;;;1.38;85.28
56420;BME280;42323;52.170;7.538;2023-03-03T00:17:28;102027.19;;;1.45;85.96
56420;BME280;42323;52.170;7.538;2023-03-03T00:19:55;102007.97;;;1.35;85.70
56420;BME280;42323;52.170;7.538;2023-03-03T00:22:34;102042.72;;;1.61;85.68
56420;BME280;42323;52.170;7.538;2023-03-03T00:25:29;102025.13;;;1.52;85.96
56420;BME280;42323;52.170;7.538;2023-03-03T00:28:05;102044.63;;;1.57;85.56
56420;BME280;42323;52.170;7.538;2023-03-03T00:30:33;102042.88;;;1.58;85.44
56420;BME280;42323;52.170;7.538;2023-03-03T00:32:59;101981.13;;;1.21;84.73
56420;BME280;42323;52.170;7.538;2023-03-03T00:35:31;102044.88;;;1.53;85.09
56420;BME280;42323;52.170;7.538;2023-03-03T00:38:13;102026.72;;;1.38;85.09
56420;BME280;42323;52.170;7.538;2023-03-03T00:40:42;102015.72;;;1.35;85.17
56420;BME280;42323;52.170;7.538;2023-03-03T00:43:21;102009.78;;;1.33;85.07
56420;BME280;42323;52.170;7.538;2023-03-03T00:45:53;102014.44;;;1.42;85.47
56420;BME280;42323;52.170;7.538;2023-03-03T00:51:00;102036.63;;;1.62;85.90
56420;BME280;42323;52.170;7.538;2023-03-03T00:53:28;102032.28;;;1.62;85.23
56420;BME280;42323;52.170;7.538;2023-03-03T00:55:55;102016.47;;;1.53;85.24
56420;BME280;42323;52.170;7.538;2023-03-03T00:58:23;102023.28;;;1.54;85.41
56420;BME280;42323;52.170;7.538;2023-03-03T01:00:51;102046.78;;;1.65;85.58
56420;BME280;42323;52.170;7.538;2023-03-03T01:03:21;102056.13;;;1.67;85.35
56420;BME280;42323;52.170;7.538;2023-03-03T01:05:48;102044.94;;;1.67;85.09
56420;BME280;42323;52.170;7.538;2023-03-03T01:08:15;102038.84;;;1.68;84.80
56420;BME280;42323;52.170;7.538;2023-03-03T01:10:46;102036.47;;;1.65;85.25
56420;BME280;42323;52.170;7.538;2023-03-03T01:13:17;102041.38;;;1.69;85.32
56420;BME280;42323;52.170;7.538;2023-03-03T01:15:44;102034.63;;;1.67;85.20
56420;BME280;42323;52.170;7.538;2023-03-03T01:18:12;102022.47;;;1.53;84.61
56420;BME280;42323;52.170;7.538;2023-03-03T01:20:39;102040.88;;;1.63;84.68
56420;BME280;42323;52.170;7.538;2023-03-03T01:23:05;102037.44;;;1.62;85.26
56420;BME280;42323;52.170;7.538;2023-03-03T01:25:32;102032.97;;;1.66;84.95
56420;BME280;42323;52.170;7.538;2023-03-03T01:27:59;102011.47;;;1.49;85.10
56420;BME280;42323;52.170;7.538;2023-03-03T01:30:26;102002.06;;;1.48;85.10
56420;BME280;42323;52.170;7.538;2023-03-03T01:32:52;101998.69;;;1.46;85.67
56420;BME280;42323;52.170;7.538;2023-03-03T01:35:19;102018.78;;;1.57;85.26
56420;BME280;42323;52.170;7.538;2023-03-03T01:37:46;102007.94;;;1.50;85.44
56420;BME280;42323;52.170;7.538;2023-03-03T01:40:16;102029.44;;;1.67;85.50
56420;BME280;42323;52.170;7.538;2023-03-03T01:42:43;102016.38;;;1.54;85.24
56420;BME280;42323;52.170;7.538;2023-03-03T01:45:26;102008.28;;;1.44;85.70
56420;BME280;42323;52.170;7.538;2023-03-03T01:48:09;102028.09;;;1.60;85.05
56420;BME280;42323;52.170;7.538;2023-03-03T01:50:45;102017.03;;;1.58;85.51
56420;BME280;42323;52.170;7.538;2023-03-03T01:53:18;102030.28;;;1.67;86.03
56420;BME280;42323;52.170;7.538;2023-03-03T01:55:46;101999.78;;;1.58;85.49
56420;BME280;42323;52.170;7.538;2023-03-03T01:58:28;102019.28;;;1.64;85.29
56420;BME280;42323;52.170;7.538;2023-03-03T02:01:02;102025.63;;;1.74;85.06
56420;BME280;42323;52.170;7.538;2023-03-03T02:03:30;102022.47;;;1.69;85.20
56420;BME280;42323;52.170;7.538;2023-03-03T02:06:01;102032.72;;;1.70;85.24
56420;BME280;42323;52.170;7.538;2023-03-03T02:08:35;102021.88;;;1.64;85.57
56420;BME280;42323;52.170;7.538;2023-03-03T02:11:05;102027.94;;;1.63;86.14
56420;BME280;42323;52.170;7.538;2023-03-03T02:13:32;102024.06;;;1.56;86.44
56420;BME280;42323;52.170;7.538;2023-03-03T02:15:58;102026.28;;;1.62;86.46
56420;BME280;42323;52.170;7.538;2023-03-03T02:18:26;102013.88;;;1.53;85.84
56420;BME280;42323;52.170;7.538;2023-03-03T02:21:06;102035.63;;;1.64;86.64
56420;BME280;42323;52.170;7.538;2023-03-03T02:24:06;102028.28;;;1.57;86.86
56420;BME280;42323;52.170;7.538;2023-03-03T02:26:39;102024.88;;;1.56;86.86
56420;BME280;42323;52.170;7.538;2023-03-03T02:29:07;102027.63;;;1.69;86.62
56420;BME280;42323;52.170;7.538;2023-03-03T02:31:34;101997.72;;;1.49;86.75
56420;BME280;42323;52.170;7.538;2023-03-03T02:34:00;102009.44;;;1.55;86.40
56420;BME280;42323;52.170;7.538;2023-03-03T02:36:33;102027.03;;;1.64;87.32
56420;BME280;42323;52.170;7.538;2023-03-03T02:39:11;102017.97;;;1.57;87.43
56420;BME280;42323;52.170;7.538;2023-03-03T02:44:24;102040.81;;;1.64;86.63
56420;BME280;42323;52.170;7.538;2023-03-03T02:46:53;102044.28;;;1.63;86.95
56420;BME280;42323;52.170;7.538;2023-03-03T02:49:22;102024.94;;;1.55;86.81
56420;BME280;42323;52.170;7.538;2023-03-03T02:51:49;102021.94;;;1.46;86.72
56420;BME280;42323;52.170;7.538;2023-03-03T02:54:17;102042.44;;;1.49;87.23
56420;BME280;42323;52.170;7.538;2023-03-03T02:56:44;102016.44;;;1.37;87.16
56420;BME280;42323;52.170;7.538;2023-03-03T02:59:12;102002.38;;;1.27;87.37
56420;BME280;42323;52.170;7.538;2023-03-03T03:01:39;102032.75;;;1.37;87.65
56420;BME280;42323;52.170;7.538;2023-03-03T03:04:17;102037.63;;;1.43;87.36
56420;BME280;42323;52.170;7.538;2023-03-03T03:06:44;102000.88;;;1.22;87.71
56420;BME280;42323;52.170;7.538;2023-03-03T03:09:12;101969.28;;;1.02;87.82
56420;BME280;42323;52.170;7.538;2023-03-03T03:11:39;102023.50;;;1.33;87.65
56420;BME280;42323;52.170;7.538;2023-03-03T03:14:08;102045.19;;;1.46;88.16
56420;BME280;42323;52.170;7.538;2023-03-03T03:16:35;102005.19;;;1.22;87.85
56420;BME280;42323;52.170;7.538;2023-03-03T03:19:03;102036.78;;;1.43;88.08
56420;BME280;42323;52.170;7.538;2023-03-03T03:21:30;102015.03;;;1.31;87.57
56420;BME280;42323;52.170;7.538;2023-03-03T03:23:57;102021.59;;;1.37;87.95
56420;BME280;42323;52.170;7.538;2023-03-03T03:26:23;102028.53;;;1.36;87.86
56420;BME280;42323;52.170;7.538;2023-03-03T03:28:50;102035.69;;;1.31;88.06
56420;BME280;42323;52.170;7.538;2023-03-03T03:31:18;102042.50;;;1.32;87.99
56420;BME280;42323;52.170;7.538;2023-03-03T03:33:45;102043.28;;;1.34;87.95
56420;BME280;42323;52.170;7.538;2023-03-03T03:36:12;102040.84;;;1.31;88.44
56420;BME280;42323;52.170;7.538;2023-03-03T03:38:39;102042.50;;;1.32;88.42
56420;BME280;42323;52.170;7.538;2023-03-03T03:41:06;102020.69;;;1.22;88.13
56420;BME280;42323;52.170;7.538;2023-03-03T03:43:34;102022.91;;;1.12;88.05
56420;BME280;42323;52.170;7.538;2023-03-03T03:46:00;102026.50;;;1.10;87.95
56420;BME280;42323;52.170;7.538;2023-03-03T03:48:27;102033.06;;;1.15;87.57
56420;BME280;42323;52.170;7.538;2023-03-03T03:50:53;102049.09;;;1.22;87.96
56420;BME280;42323;52.170;7.538;2023-03-03T03:53:20;102031.31;;;1.16;88.39
56420;BME280;42323;52.170;7.538;2023-03-03T03:55:46;102040.31;;;1.24;88.77
56420;BME280;42323;52.170;7.538;2023-03-03T03:58:14;102048.91;;;1.25;88.28
56420;BME280;42323;52.170;7.538;2023-03-03T04:00:41;102049.66;;;1.27;88.49
56420;BME280;42323;52.170;7.538;2023-03-03T04:03:09;102043.97;;;1.20;88.16
56420;BME280;42323;52.170;7.538;2023-03-03T04:05:36;102051.91;;;1.17;88.12
56420;BME280;42323;52.170;7.538;2023-03-03T04:08:05;102042.88;;;1.09;88.42
56420;BME280;42323;52.170;7.538;2023-03-03T04:10:32;102046.13;;;1.12;87.68
56420;BME280;42323;52.170;7.538;2023-03-03T04:12:58;102056.06;;;1.20;88.52
56420;BME280;42323;52.170;7.538;2023-03-03T04:15:24;102043.38;;;1.15;88.61
56420;BME280;42323;52.170;7.538;2023-03-03T04:17:51;102032.56;;;1.09;88.32
56420;BME280;42323;52.170;7.538;2023-03-03T04:20:18;102044.16;;;1.17;88.71
56420;BME280;42323;52.170;7.538;2023-03-03T04:22:44;102041.59;;;1.17;88.35
56420;BME280;42323;52.170;7.538;2023-03-03T04:25:14;102041.81;;;1.13;88.24
56420;BME280;42323;52.170;7.538;2023-03-03T04:27:41;102048.50;;;1.17;88.49
56420;BME280;42323;52.170;7.538;2023-03-03T04:30:12;102050.06;;;1.19;88.51
56420;BME280;42323;52.170;7.538;2023-03-03T04:32:39;102030.00;;;1.09;88.10
56420;BME280;42323;52.170;7.538;2023-03-03T04:35:06;102022.25;;;1.09;88.59
56420;BME280;42323;52.170;7.538;2023-03-03T04:37:35;102024.81;;;1.09;88.41
56420;BME280;42323;52.170;7.538;2023-03-03T04:40:03;102032.56;;;1.09;88.57
56420;BME280;42323;52.170;7.538;2023-03-03T04:42:30;102025.41;;;1.14;88.76
56420;BME280;42323;52.170;7.538;2023-03-03T04:44:56;102029.56;;;1.16;88.97
56420;BME280;42323;52.170;7.538;2023-03-03T04:47:23;102039.59;;;1.22;89.19
56420;BME280;42323;52.170;7.538;2023-03-03T04:49:49;102037.56;;;1.12;87.66
56420;BME280;42323;52.170;7.538;2023-03-03T04:52:16;102048.41;;;1.18;87.35
56420;BME280;42323;52.170;7.538;2023-03-03T04:54:42;102044.22;;;1.16;87.77
56420;BME280;42323;52.170;7.538;2023-03-03T04:57:09;102034.78;;;0.99;87.66
56420;BME280;42323;52.170;7.538;2023-03-03T04:59:35;102049.88;;;1.07;88.02
56420;BME280;42323;52.170;7.538;2023-03-03T05:02:02;102056.69;;;1.08;87.78
56420;BME280;42323;52.170;7.538;2023-03-03T05:04:31;102052.00;;;0.98;88.24
56420;BME280;42323;52.170;7.538;2023-03-03T05:06:57;102061.09;;;1.06;88.56
56420;BME280;42323;52.170;7.538;2023-03-03T05:09:24;102058.69;;;1.03;88.28
56420;BME280;42323;52.170;7.538;2023-03-03T05:11:50;102049.13;;;1.05;88.43
56420;BME280;42323;52.170;7.538;2023-03-03T05:14:17;102057.47;;;1.10;88.51
56420;BME280;42323;52.170;7.538;2023-03-03T05:24:49;102056.19;;;1.01;87.98
56420;BME280;42323;52.170;7.538;2023-03-03T05:46:02;102069.78;;;1.05;87.39
56420;BME280;42323;52.170;7.538;2023-03-03T06:10:07;102080.78;;;0.91;86.75
56420;BME280;42323;52.170;7.538;2023-03-03T06:12:34;102081.31;;;0.97;86.48
56420;BME280;42323;52.170;7.538;2023-03-03T06:15:01;102076.47;;;0.91;86.46
56420;BME280;42323;52.170;7.538;2023-03-03T06:17:27;102087.38;;;0.96;86.62
56420;BME280;42323;52.170;7.538;2023-03-03T06:19:54;102070.38;;;0.92;86.59
56420;BME280;42323;52.170;7.538;2023-03-03T06:22:20;102076.28;;;0.94;86.54
56420;BME280;42323;52.170;7.538;2023-03-03T06:24:46;102057.28;;;0.80;86.49
56420;BME280;42323;52.170;7.538;2023-03-03T06:27:13;102095.88;;;0.98;86.43
56420;BME280;42323;52.170;7.538;2023-03-03T06:29:39;102051.75;;;0.70;86.64
56420;BME280;42323;52.170;7.538;2023-03-03T06:32:06;102071.16;;;0.77;86.40
56420;BME280;42323;52.170;7.538;2023-03-03T06:34:32;102091.78;;;0.94;85.95
56420;BME280;42323;52.170;7.538;2023-03-03T06:36:59;102079.34;;;0.85;85.95
56420;BME280;42323;52.170;7.538;2023-03-03T06:39:25;102076.47;;;0.74;85.91
56420;BME280;42323;52.170;7.538;2023-03-03T06:42:06;101978.88;;;0.14;85.95
56420;BME280;42323;52.170;7.538;2023-03-03T06:44:34;102022.03;;;0.45;86.31
56420;BME280;42323;52.170;7.538;2023-03-03T06:47:03;102045.38;;;0.60;86.26
56420;BME280;42323;52.170;7.538;2023-03-03T06:49:34;101977.47;;;0.09;85.64
56420;BME280;42323;52.170;7.538;2023-03-03T06:52:09;102114.69;;;1.00;85.34
56420;BME280;42323;52.170;7.538;2023-03-03T06:54:36;102057.97;;;0.66;85.49
56420;BME280;42323;52.170;7.538;2023-03-03T06:57:15;102040.63;;;0.52;85.83
56420;BME280;42323;52.170;7.538;2023-03-03T06:59:42;102090.72;;;0.81;85.31
56420;BME280;42323;52.170;7.538;2023-03-03T07:02:17;102115.16;;;0.91;85.55
56420;BME280;42323;52.170;7.538;2023-03-03T07:04:44;102116.00;;;0.92;85.84
56420;BME280;42323;52.170;7.538;2023-03-03T07:07:18;102103.16;;;0.90;85.24
56420;BME280;42323;52.170;7.538;2023-03-03T07:09:51;102128.19;;;1.06;85.52
56420;BME280;42323;52.170;7.538;2023-03-03T07:12:23;102084.88;;;0.78;85.32
56420;BME280;42323;52.170;7.538;2023-03-03T07:15:15;102130.47;;;1.12;84.98
56420;BME280;42323;52.170;7.538;2023-03-03T07:17:47;102135.72;;;1.10;84.71
56420;BME280;42323;52.170;7.538;2023-03-03T07:20:32;102133.44;;;1.04;85.25
56420;BME280;42323;52.170;7.538;2023-03-03T07:23:12;102139.25;;;1.08;85.05
56420;BME280;42323;52.170;7.538;2023-03-03T07:26:01;102149.22;;;1.15;84.21
56420;BME280;42323;52.170;7.538;2023-03-03T07:28:31;102148.53;;;1.12;84.51
56420;BME280;42323;52.170;7.538;2023-03-03T07:31:22;102120.53;;;1.04;84.59
56420;BME280;42323;52.170;7.538;2023-03-03T07:33:51;102156.50;;;1.24;84.59
56420;BME280;42323;52.170;7.538;2023-03-03T07:36:34;102137.06;;;1.17;84.60
56420;BME280;42323;52.170;7.538;2023-03-03T07:39:25;102135.38;;;1.16;84.23
56420;BME280;42323;52.170;7.538;2023-03-03T07:41:59;102158.19;;;1.25;84.22
56420;BME280;42323;52.170;7.538;2023-03-03T07:44:34;102163.56;;;1.38;83.74
56420;BME280;42323;52.170;7.538;2023-03-03T07:47:18;102152.16;;;1.25;83.92
56420;BME280;42323;52.170;7.538;2023-03-03T07:49:47;102166.44;;;1.32;83.81
56420;BME280;42323;52.170;7.538;2023-03-03T07:54:55;102091.56;;;0.82;83.80
56420;BME280;42323;52.170;7.538;2023-03-03T07:57:25;102172.50;;;1.31;83.74
56420;BME280;42323;52.170;7.538;2023-03-03T07:59:54;102188.28;;;1.42;83.80
56420;BME280;42323;52.170;7.538;2023-03-03T08:02:40;102186.16;;;1.50;83.93
56420;BME280;42323;52.170;7.538;2023-03-03T08:05:41;102188.56;;;1.54;83.89
56420;BME280;42323;52.170;7.538;2023-03-03T08:15:45;102180.75;;;1.55;83.25
56420;BME280;42323;52.170;7.538;2023-03-03T08:18:20;102192.59;;;1.59;82.95
56420;BME280;42323;52.170;7.538;2023-03-03T08:20:51;102191.25;;;1.52;83.32
56420;BME280;42323;52.170;7.538;2023-03-03T08:23:19;102198.56;;;1.60;83.72
56420;BME280;42323;52.170;7.538;2023-03-03T08:25:47;102186.81;;;1.54;83.58
56420;BME280;42323;52.170;7.538;2023-03-03T08:28:14;102200.63;;;1.70;84.12
56420;BME280;42323;52.170;7.538;2023-03-03T08:30:42;102191.94;;;1.71;83.21
56420;BME280;42323;52.170;7.538;2023-03-03T08:33:09;102136.72;;;1.41;83.48
56420;BME280;42323;52.170;7.538;2023-03-03T08:35:37;102193.06;;;1.83;83.36
56420;BME280;42323;52.170;7.538;2023-03-03T08:38:04;102204.53;;;1.95;82.90
56420;BME280;42323;52.170;7.538;2023-03-03T08:40:36;102190.00;;;1.92;83.11
56420;BME280;42323;52.170;7.538;2023-03-03T08:43:03;102172.50;;;1.82;83.00
56420;BME280;42323;52.170;7.538;2023-03-03T08:45:30;102193.69;;;2.04;82.90
56420;BME280;42323;52.170;7.538;2023-03-03T08:47:57;102180.00;;;2.02;82.56
56420;BME280;42323;52.170;7.538;2023-03-03T08:50:30;102193.44;;;2.09;82.61
56420;BME280;42323;52.170;7.538;2023-03-03T08:52:57;102191.25;;;2.01;82.43
56420;BME280;42323;52.170;7.538;2023-03-03T08:55:23;102179.31;;;1.98;82.59
56420;BME280;42323;52.170;7.538;2023-03-03T08:57:50;102181.00;;;1.99;82.70
56420;BME280;42323;52.170;7.538;2023-03-03T09:00:17;102188.19;;;2.10;82.24
56420;BME280;42323;52.170;7.538;2023-03-03T09:02:44;102189.00;;;2.11;81.57
56420;BME280;42323;52.170;7.538;2023-03-03T09:05:11;102186.44;;;2.11;81.95
56420;BME280;42323;52.170;7.538;2023-03-03T09:07:38;102196.25;;;2.20;82.26
56420;BME280;42323;52.170;7.538;2023-03-03T09:10:05;102178.91;;;2.06;81.47
56420;BME280;42323;52.170;7.538;2023-03-03T09:12:42;102205.22;;;2.30;81.25
56420;BME280;42323;52.170;7.538;2023-03-03T09:15:27;102209.38;;;2.33;81.46
56420;BME280;42323;52.170;7.538;2023-03-03T09:18:34;102210.03;;;2.36;81.43
56420;BME280;42323;52.170;7.538;2023-03-03T09:21:16;102205.53;;;2.40;81.74
56420;BME280;42323;52.170;7.538;2023-03-03T09:23:53;102202.13;;;2.39;80.80
56420;BME280;42323;52.170;7.538;2023-03-03T09:29:15;102200.03;;;2.46;81.19
56420;BME280;42323;52.170;7.538;2023-03-03T09:31:46;102181.28;;;2.42;80.87
56420;BME280;42323;52.170;7.538;2023-03-03T09:36:48;102212.69;;;2.66;80.55
56420;BME280;42323;52.170;7.538;2023-03-03T09:39:23;102206.16;;;2.75;79.79
56420;BME280;42323;52.170;7.538;2023-03-03T09:45:25;102219.00;;;2.92;79.31
56420;BME280;42323;52.170;7.538;2023-03-03T09:51:14;102217.63;;;3.01;78.17
56420;BME280;42323;52.170;7.538;2023-03-03T09:53:50;102239.88;;;3.19;79.10
56420;BME280;42323;52.170;7.538;2023-03-03T09:56:58;102234.09;;;3.30;78.98
56420;BME280;42323;52.170;7.538;2023-03-03T09:59:47;102234.81;;;3.32;78.29
56420;BME280;42323;52.170;7.538;2023-03-03T10:10:46;102231.22;;;3.20;78.86
56420;BME280;42323;52.170;7.538;2023-03-03T10:16:24;102220.91;;;3.19;77.77
56420;BME280;42323;52.170;7.538;2023-03-03T10:19:00;102227.44;;;3.26;78.23
56420;BME280;42323;52.170;7.538;2023-03-03T10:21:36;102218.94;;;3.24;78.33
56420;BME280;42323;52.170;7.538;2023-03-03T10:24:30;102237.16;;;3.37;78.21
56420;BME280;42323;52.170;7.538;2023-03-03T10:27:23;102233.72;;;3.36;78.07
56420;BME280;42323;52.170;7.538;2023-03-03T10:30:07;102232.56;;;3.42;77.22
56420;BME280;42323;52.170;7.538;2023-03-03T10:41:27;102238.59;;;3.71;77.20
56420;BME280;42323;52.170;7.538;2023-03-03T10:50:22;102199.88;;;3.39;77.13
56420;BME280;42323;52.170;7.538;2023-03-03T10:59:42;102236.19;;;3.68;76.24
56420;BME280;42323;52.170;7.538;2023-03-03T11:02:21;102246.00;;;3.63;76.67
56420;BME280;42323;52.170;7.538;2023-03-03T11:07:34;102240.56;;;3.67;76.69
56420;BME280;42323;52.170;7.538;2023-03-03T11:16:05;102236.59;;;3.76;76.30
56420;BME280;42323;52.170;7.538;2023-03-03T11:27:23;102229.06;;;4.00;74.26
56420;BME280;42323;52.170;7.538;2023-03-03T11:35:19;102195.06;;;4.05;73.69
56420;BME280;42323;52.170;7.538;2023-03-03T11:38:34;102131.34;;;3.59;73.28
56420;BME280;42323;52.170;7.538;2023-03-03T11:44:24;102222.47;;;4.09;72.89
56420;BME280;42323;52.170;7.538;2023-03-03T11:55:52;102210.97;;;4.27;72.02
56420;BME280;42323;52.170;7.538;2023-03-03T11:58:30;102192.81;;;4.27;71.95
56420;BME280;42323;52.170;7.538;2023-03-03T12:01:15;102215.56;;;4.50;70.74
56420;BME280;42323;52.170;7.538;2023-03-03T12:12:26;102193.63;;;5.21;69.43
56420;BME280;42323;52.170;7.538;2023-03-03T12:25:50;102185.38;;;5.78;67.66
56420;BME280;42323;52.170;7.538;2023-03-03T12:28:31;102187.38;;;5.88;67.22
56420;BME280;42323;52.170;7.538;2023-03-03T12:36:54;102168.97;;;5.78;67.01
56420;BME280;42323;52.170;7.538;2023-03-03T12:46:06;102180.41;;;5.88;67.60
56420;BME280;42323;52.170;7.538;2023-03-03T12:48:46;102067.03;;;5.36;65.89
56420;BME280;42323;52.170;7.538;2023-03-03T13:07:16;102140.91;;;14.51;42.61
56420;BME280;42323;52.170;7.538;2023-03-03T13:12:30;102114.19;;;14.63;41.39
56420;BME280;42323;52.170;7.538;2023-03-03T13:15:07;102096.13;;;13.42;43.39
56420;BME280;42323;52.170;7.538;2023-03-03T13:18:27;102106.75;;;14.74;41.25
56420;BME280;42323;52.170;7.538;2023-03-03T13:23:57;102120.50;;;16.04;38.16
56420;BME280;42323;52.170;7.538;2023-03-03T13:26:37;102124.47;;;15.21;39.33
56420;BME280;42323;52.170;7.538;2023-03-03T13:29:14;102127.50;;;15.49;38.39
56420;BME280;42323;52.170;7.538;2023-03-03T13:31:54;102093.66;;;15.53;38.41
56420;BME280;42323;52.170;7.538;2023-03-03T13:34:53;102093.56;;;16.23;37.60
56420;BME280;42323;52.170;7.538;2023-03-03T13:37:40;102090.56;;;16.87;36.00
56420;BME280;42323;52.170;7.538;2023-03-03T13:40:15;102096.41;;;16.83;35.49
56420;BME280;42323;52.170;7.538;2023-03-03T13:42:46;102106.19;;;17.41;35.25
56420;BME280;42323;52.170;7.538;2023-03-03T13:47:56;102101.16;;;17.83;33.56
56420;BME280;42323;52.170;7.538;2023-03-03T13:53:02;102080.41;;;18.08;33.35
56420;BME280;42323;52.170;7.538;2023-03-03T13:55:44;102083.81;;;17.65;33.21
56420;BME280;42323;52.170;7.538;2023-03-03T13:58:27;102079.69;;;17.41;34.13
56420;BME280;42323;52.170;7.538;2023-03-03T14:01:04;102065.34;;;17.72;34.10
56420;BME280;42323;52.170;7.538;2023-03-03T14:03:59;102075.94;;;18.08;33.71
56420;BME280;42323;52.170;7.538;2023-03-03T14:06:28;102048.53;;;18.22;33.28
56420;BME280;42323;52.170;7.538;2023-03-03T14:14:46;102070.47;;;16.40;35.86
56420;BME280;42323;52.170;7.538;2023-03-03T14:20:27;102049.97;;;17.31;35.25
56420;BME280;42323;52.170;7.538;2023-03-03T14:28:20;102034.41;;;18.22;32.55
56420;BME280;42323;52.170;7.538;2023-03-03T14:30:47;102044.38;;;18.41;33.76
56420;BME280;42323;52.170;7.538;2023-03-03T14:33:18;102041.34;;;18.44;32.48
56420;BME280;42323;52.170;7.538;2023-03-03T14:38:34;102036.69;;;18.25;32.99
56420;BME280;42323;52.170;7.538;2023-03-03T14:43:39;102032.59;;;18.22;33.47
56420;BME280;42323;52.170;7.538;2023-03-03T14:48:53;102032.25;;;18.32;33.27
56420;BME280;42323;52.170;7.538;2023-03-03T14:51:28;102037.50;;;18.75;32.35
56420;BME280;42323;52.170;7.538;2023-03-03T14:53:56;102026.13;;;18.94;32.18
56420;BME280;42323;52.170;7.538;2023-03-03T14:56:32;102029.31;;;16.90;34.52
56420;BME280;42323;52.170;7.538;2023-03-03T14:59:17;102017.94;;;14.18;39.41
56420;BME280;42323;52.170;7.538;2023-03-03T15:01:46;101911.78;;;12.33;42.43
56420;BME280;42323;52.170;7.538;2023-03-03T15:11:56;101999.56;;;9.71;51.71
56420;BME280;42323;52.170;7.538;2023-03-03T15:14:34;102012.34;;;9.45;52.63
56420;BME280;42323;52.170;7.538;2023-03-03T15:17:27;102019.44;;;9.24;53.29
56420;BME280;42323;52.170;7.538;2023-03-03T15:20:57;102016.34;;;8.99;54.63
56420;BME280;42323;52.170;7.538;2023-03-03T15:26:01;102019.44;;;8.84;55.14
56420;BME280;42323;52.170;7.538;2023-03-03T15:31:15;102019.97;;;8.57;57.19
56420;BME280;42323;52.170;7.538;2023-03-03T15:34:00;102002.56;;;8.25;57.47
56420;BME280;42323;52.170;7.538;2023-03-03T15:42:31;102002.56;;;7.93;59.79
56420;BME280;42323;52.170;7.538;2023-03-03T15:45:19;101996.91;;;7.88;59.92
56420;BME280;42323;52.170;7.538;2023-03-03T15:51:07;101976.19;;;7.43;58.69
56420;BME280;42323;52.170;7.538;2023-03-03T15:53:52;101997.94;;;7.53;60.11
56420;BME280;42323;52.170;7.538;2023-03-03T15:59:15;101967.31;;;7.23;60.28
56420;BME280;42323;52.170;7.538;2023-03-03T16:02:07;101961.59;;;7.29;57.02
56420;BME280;42323;52.170;7.538;2023-03-03T16:04:38;101986.78;;;7.51;56.84
56420;BME280;42323;52.170;7.538;2023-03-03T16:10:09;101977.59;;;7.36;56.88
56420;BME280;42323;52.170;7.538;2023-03-03T16:16:02;101997.97;;;7.42;57.34
56420;BME280;42323;52.170;7.538;2023-03-03T16:21:28;101998.09;;;7.29;59.56
56420;BME280;42323;52.170;7.538;2023-03-03T16:27:05;101968.41;;;6.87;59.15
56420;BME280;42323;52.170;7.538;2023-03-03T18:52:34;102013.44;;;5.22;64.91
56420;BME280;42323;52.170;7.538;2023-03-03T18:55:20;102030.53;;;5.38;65.55
56420;BME280;42323;52.170;7.538;2023-03-03T19:04:21;101914.38;;;4.65;65.81
56420;BME280;42323;52.170;7.538;2023-03-03T19:07:24;102058.44;;;5.60;65.59
56420;BME280;42323;52.170;7.538;2023-03-03T19:12:52;101970.03;;;4.99;65.61
56420;BME280;42323;52.170;7.538;2023-03-03T19:18:22;102070.81;;;5.56;66.26
56420;BME280;42323;52.170;7.538;2023-03-03T19:21:28;102075.00;;;5.59;66.00
56420;BME280;42323;52.170;7.538;2023-03-03T19:23:57;102078.41;;;5.59;66.53
56420;BME280;42323;52.170;7.538;2023-03-03T19:29:48;102054.84;;;5.49;66.11
56420;BME280;42323;52.170;7.538;2023-03-03T19:35:26;102065.00;;;5.52;66.70
56420;BME280;42323;52.170;7.538;2023-03-03T19:38:26;102065.00;;;5.52;66.90
56420;BME280;42323;52.170;7.538;2023-03-03T19:41:21;102033.88;;;5.40;66.35
56420;BME280;42323;52.170;7.538;2023-03-03T19:46:54;101956.31;;;4.97;66.05
56420;BME280;42323;52.170;7.538;2023-03-03T19:52:29;102069.47;;;5.63;66.14
56420;BME280;42323;52.170;7.538;2023-03-03T19:55:32;102065.84;;;5.66;65.92
56420;BME280;42323;52.170;7.538;2023-03-03T20:01:48;102072.03;;;5.76;65.12
56420;BME280;42323;52.170;7.538;2023-03-03T20:07:52;101950.09;;;4.87;64.86
56420;BME280;42323;52.170;7.538;2023-03-03T20:20:04;102087.38;;;5.55;66.14
56420;BME280;42323;52.170;7.538;2023-03-03T20:25:36;102084.88;;;5.53;66.26
56420;BME280;42323;52.170;7.538;2023-03-03T20:38:40;102003.59;;;4.89;66.37
56420;BME280;42323;52.170;7.538;2023-03-03T20:46:45;101985.09;;;4.56;67.19
56420;BME280;42323;52.170;7.538;2023-03-03T20:55:30;102082.13;;;5.18;67.54
56420;BME280;42323;52.170;7.538;2023-03-03T21:00:57;102033.19;;;4.87;67.37
56420;BME280;42323;52.170;7.538;2023-03-03T21:03:38;101984.59;;;4.50;67.86
56420;BME280;42323;52.170;7.538;2023-03-03T21:06:16;102071.50;;;5.09;67.32
56420;BME280;42323;52.170;7.538;2023-03-03T21:08:55;102066.22;;;4.97;67.71
56420;BME280;42323;52.170;7.538;2023-03-03T21:11:39;102093.97;;;5.10;67.31
56420;BME280;42323;52.170;7.538;2023-03-03T21:14:33;102096.34;;;5.13;68.13
56420;BME280;42323;52.170;7.538;2023-03-03T21:17:28;102092.72;;;5.15;68.23
56420;BME280;42323;52.170;7.538;2023-03-03T21:20:29;102085.88;;;5.14;68.38
56420;BME280;42323;52.170;7.538;2023-03-03T21:22:57;102076.81;;;5.07;68.86
56420;BME280;42323;52.170;7.538;2023-03-03T21:28:35;102090.44;;;5.11;68.61
56420;BME280;42323;52.170;7.538;2023-03-03T21:31:13;102080.75;;;5.00;68.93